aviador You're here:

UIBB Decoded Metar

BRATSK in RUSSIA
Report Time2018-05-21 20:00:00
UTC Time2018-05-21 20:30:39
Flight Rules vfr VFR
Wind260° at 10 kt
W.Decomp.*RWY 30: 7.8 kt HW 6.3 kt LCW
W.Rank260° ranks 1
Current wind is above 260° avg. (8.1)
Visibility9999 m
Phenomena:N/A
Clouds:N/A
Expected CloudBase > 2,000 ft AGL from Temp-Dew spread
CeilingNone
Temp03°C (ISA -9)
Dew Point-2°C (70% RH)
AAT-2.9°C
QNH1008 hPa
Density Alt791 ft
Elevation1,608 ft
Report Wrong Elevation
Raw Report
METAR UIBB 212000Z AUTO 26005MPS 9999 // NCD 03/M02 Q1008 RMK QFE713/0951=

Extra information for UIBB:More info

Metar Taf Metar & Taf Last 4 Metars F.Rules Stats Wind Profile Meteogram Temp Stats Airport Information Weather charts Add Link Nearby VenuesMetar ALERT Operation Metar Decoded Social comments